sensor_id;sensor_type;location;lat;lon;timestamp;temperature;humidity
19330;DHT22;9799;48.214;16.388;2024-03-29T00:02:24;11.40;96.70
19330;DHT22;9799;48.214;16.388;2024-03-29T00:05:44;11.40;96.60
19330;DHT22;9799;48.214;16.388;2024-03-29T00:09:05;11.40;96.40
19330;DHT22;9799;48.214;16.388;2024-03-29T00:12:26;11.40;96.30
19330;DHT22;9799;48.214;16.388;2024-03-29T00:15:46;11.40;96.00
19330;DHT22;9799;48.214;16.388;2024-03-29T00:19:06;11.40;96.00
19330;DHT22;9799;48.214;16.388;2024-03-29T00:22:28;11.40;96.20
19330;DHT22;9799;48.214;16.388;2024-03-29T00:25:49;11.30;96.20
19330;DHT22;9799;48.214;16.388;2024-03-29T00:29:09;11.30;96.30
19330;DHT22;9799;48.214;16.388;2024-03-29T00:32:30;11.30;96.10
19330;DHT22;9799;48.214;16.388;2024-03-29T00:35:50;11.30;96.10
19330;DHT22;9799;48.214;16.388;2024-03-29T00:39:10;11.40;95.60
19330;DHT22;9799;48.214;16.388;2024-03-29T00:42:32;11.40;95.40
19330;DHT22;9799;48.214;16.388;2024-03-29T00:45:52;11.30;95.40
19330;DHT22;9799;48.214;16.388;2024-03-29T00:49:12;11.30;95.50
19330;DHT22;9799;48.214;16.388;2024-03-29T00:52:33;11.30;95.60
19330;DHT22;9799;48.214;16.388;2024-03-29T00:55:53;11.30;95.70
19330;DHT22;9799;48.214;16.388;2024-03-29T00:59:15;11.30;95.40
19330;DHT22;9799;48.214;16.388;2024-03-29T01:02:35;11.30;95.60
19330;DHT22;9799;48.214;16.388;2024-03-29T01:05:56;11.30;95.40
19330;DHT22;9799;48.214;16.388;2024-03-29T01:09:16;11.30;95.50
19330;DHT22;9799;48.214;16.388;2024-03-29T01:12:36;11.30;95.60
19330;DHT22;9799;48.214;16.388;2024-03-29T01:15:58;11.30;95.70
19330;DHT22;9799;48.214;16.388;2024-03-29T01:19:18;11.20;95.90
19330;DHT22;9799;48.214;16.388;2024-03-29T01:22:38;11.20;96.30
19330;DHT22;9799;48.214;16.388;2024-03-29T01:25:59;11.10;96.50
19330;DHT22;9799;48.214;16.388;2024-03-29T01:29:19;11.00;96.50
19330;DHT22;9799;48.214;16.388;2024-03-29T01:32:41;11.00;96.50
19330;DHT22;9799;48.214;16.388;2024-03-29T01:36:01;11.00;96.70
19330;DHT22;9799;48.214;16.388;2024-03-29T01:39:21;10.90;97.10
19330;DHT22;9799;48.214;16.388;2024-03-29T01:42:41;10.80;97.50
19330;DHT22;9799;48.214;16.388;2024-03-29T01:46:02;10.80;97.40
19330;DHT22;9799;48.214;16.388;2024-03-29T01:49:27;10.80;97.30
19330;DHT22;9799;48.214;16.388;2024-03-29T01:52:49;10.80;97.40
19330;DHT22;9799;48.214;16.388;2024-03-29T01:56:11;10.80;97.10
19330;DHT22;9799;48.214;16.388;2024-03-29T01:59:33;10.80;97.10
19330;DHT22;9799;48.214;16.388;2024-03-29T02:02:54;10.80;97.60
19330;DHT22;9799;48.214;16.388;2024-03-29T02:06:18;10.70;98.00
19330;DHT22;9799;48.214;16.388;2024-03-29T02:09:39;10.60;98.20
19330;DHT22;9799;48.214;16.388;2024-03-29T02:13:01;10.60;98.40
19330;DHT22;9799;48.214;16.388;2024-03-29T02:16:22;10.60;98.70
19330;DHT22;9799;48.214;16.388;2024-03-29T02:19:43;10.50;98.90
19330;DHT22;9799;48.214;16.388;2024-03-29T02:23:10;10.40;99.00
19330;DHT22;9799;48.214;16.388;2024-03-29T02:26:33;10.40;99.00
19330;DHT22;9799;48.214;16.388;2024-03-29T02:29:56;10.40;99.40
19330;DHT22;9799;48.214;16.388;2024-03-29T02:33:17;10.20;99.60
19330;DHT22;9799;48.214;16.388;2024-03-29T02:36:38;10.20;99.70
19330;DHT22;9799;48.214;16.388;2024-03-29T02:40:00;10.10;99.90
19330;DHT22;9799;48.214;16.388;2024-03-29T02:43:22;10.20;99.90
19330;DHT22;9799;48.214;16.388;2024-03-29T02:46:43;10.20;99.90
19330;DHT22;9799;48.214;16.388;2024-03-29T02:50:06;10.20;99.90
19330;DHT22;9799;48.214;16.388;2024-03-29T02:53:26;10.10;99.90
19330;DHT22;9799;48.214;16.388;2024-03-29T02:56:47;10.00;99.90
19330;DHT22;9799;48.214;16.388;2024-03-29T03:00:10;9.90;99.90
19330;DHT22;9799;48.214;16.388;2024-03-29T03:03:32;9.90;99.90
19330;DHT22;9799;48.214;16.388;2024-03-29T03:06:53;9.80;99.90
19330;DHT22;9799;48.214;16.388;2024-03-29T03:10:15;9.60;99.90
19330;DHT22;9799;48.214;16.388;2024-03-29T03:13:54;9.50;99.90
19330;DHT22;9799;48.214;16.388;2024-03-29T03:17:17;9.50;99.90
19330;DHT22;9799;48.214;16.388;2024-03-29T03:20:38;9.50;99.90
19330;DHT22;9799;48.214;16.388;2024-03-29T03:23:58;9.60;99.90
19330;DHT22;9799;48.214;16.388;2024-03-29T03:27:20;9.70;99.90
19330;DHT22;9799;48.214;16.388;2024-03-29T03:30:40;9.80;99.90
19330;DHT22;9799;48.214;16.388;2024-03-29T03:34:03;9.70;99.90
19330;DHT22;9799;48.214;16.388;2024-03-29T03:37:24;9.70;99.90
19330;DHT22;9799;48.214;16.388;2024-03-29T03:40:44;9.70;99.90
19330;DHT22;9799;48.214;16.388;2024-03-29T03:44:05;9.70;99.90
19330;DHT22;9799;48.214;16.388;2024-03-29T03:47:26;9.70;99.90
19330;DHT22;9799;48.214;16.388;2024-03-29T03:50:48;9.80;99.90
19330;DHT22;9799;48.214;16.388;2024-03-29T03:54:08;9.80;99.90
19330;DHT22;9799;48.214;16.388;2024-03-29T03:57:29;9.70;99.90
19330;DHT22;9799;48.214;16.388;2024-03-29T04:00:50;9.60;99.90
19330;DHT22;9799;48.214;16.388;2024-03-29T04:04:11;9.70;99.90
19330;DHT22;9799;48.214;16.388;2024-03-29T04:07:33;9.50;99.90
19330;DHT22;9799;48.214;16.388;2024-03-29T04:10:54;9.60;99.90
19330;DHT22;9799;48.214;16.388;2024-03-29T04:14:15;9.50;99.90
19330;DHT22;9799;48.214;16.388;2024-03-29T04:17:36;9.60;99.90
19330;DHT22;9799;48.214;16.388;2024-03-29T04:20:57;9.70;99.90
19330;DHT22;9799;48.214;16.388;2024-03-29T04:24:19;9.60;99.90
19330;DHT22;9799;48.214;16.388;2024-03-29T04:27:41;9.60;99.90
19330;DHT22;9799;48.214;16.388;2024-03-29T04:31:02;9.50;99.90
19330;DHT22;9799;48.214;16.388;2024-03-29T04:34:22;9.50;99.90
19330;DHT22;9799;48.214;16.388;2024-03-29T04:37:43;9.50;99.90
19330;DHT22;9799;48.214;16.388;2024-03-29T04:41:06;9.50;99.90
19330;DHT22;9799;48.214;16.388;2024-03-29T04:44:28;9.40;99.90
19330;DHT22;9799;48.214;16.388;2024-03-29T04:47:49;9.40;99.90
19330;DHT22;9799;48.214;16.388;2024-03-29T04:51:10;9.30;99.90
19330;DHT22;9799;48.214;16.388;2024-03-29T04:54:32;9.20;99.90
19330;DHT22;9799;48.214;16.388;2024-03-29T04:57:54;9.00;99.90
19330;DHT22;9799;48.214;16.388;2024-03-29T05:01:16;9.00;99.90
19330;DHT22;9799;48.214;16.388;2024-03-29T05:04:37;9.00;99.90
19330;DHT22;9799;48.214;16.388;2024-03-29T05:07:58;9.00;99.90
19330;DHT22;9799;48.214;16.388;2024-03-29T05:11:19;9.00;99.90
19330;DHT22;9799;48.214;16.388;2024-03-29T05:14:42;9.00;99.90
19330;DHT22;9799;48.214;16.388;2024-03-29T05:18:03;9.00;99.90
19330;DHT22;9799;48.214;16.388;2024-03-29T05:21:25;8.90;99.90
19330;DHT22;9799;48.214;16.388;2024-03-29T05:24:46;8.90;99.90
19330;DHT22;9799;48.214;16.388;2024-03-29T05:28:08;8.90;99.90
19330;DHT22;9799;48.214;16.388;2024-03-29T05:31:31;8.90;99.90
19330;DHT22;9799;48.214;16.388;2024-03-29T05:34:52;9.00;99.90
19330;DHT22;9799;48.214;16.388;2024-03-29T05:38:13;9.20;99.90
19330;DHT22;9799;48.214;16.388;2024-03-29T05:41:34;9.30;99.90
19330;DHT22;9799;48.214;16.388;2024-03-29T05:44:56;9.50;99.90
19330;DHT22;9799;48.214;16.388;2024-03-29T05:48:18;9.80;99.90
19330;DHT22;9799;48.214;16.388;2024-03-29T05:51:40;10.10;99.90
19330;DHT22;9799;48.214;16.388;2024-03-29T05:55:01;10.30;99.90
19330;DHT22;9799;48.214;16.388;2024-03-29T05:58:26;10.40;99.90
19330;DHT22;9799;48.214;16.388;2024-03-29T06:01:47;10.70;99.90
19330;DHT22;9799;48.214;16.388;2024-03-29T06:05:10;10.70;99.90
19330;DHT22;9799;48.214;16.388;2024-03-29T06:08:31;10.70;98.50
19330;DHT22;9799;48.214;16.388;2024-03-29T06:11:53;10.80;96.80
19330;DHT22;9799;48.214;16.388;2024-03-29T06:15:14;11.00;95.00
19330;DHT22;9799;48.214;16.388;2024-03-29T06:18:53;11.10;93.50
19330;DHT22;9799;48.214;16.388;2024-03-29T06:22:16;11.20;92.70
19330;DHT22;9799;48.214;16.388;2024-03-29T06:25:38;11.30;91.90
19330;DHT22;9799;48.214;16.388;2024-03-29T06:29:00;11.50;91.50
19330;DHT22;9799;48.214;16.388;2024-03-29T06:32:21;11.50;90.20
19330;DHT22;9799;48.214;16.388;2024-03-29T06:35:42;11.50;89.50
19330;DHT22;9799;48.214;16.388;2024-03-29T06:39:06;11.60;89.70
19330;DHT22;9799;48.214;16.388;2024-03-29T06:42:28;11.70;89.60
19330;DHT22;9799;48.214;16.388;2024-03-29T06:45:50;11.80;89.40
19330;DHT22;9799;48.214;16.388;2024-03-29T06:49:11;11.80;89.10
19330;DHT22;9799;48.214;16.388;2024-03-29T06:52:32;11.60;89.40
19330;DHT22;9799;48.214;16.388;2024-03-29T06:55:55;11.50;90.40
19330;DHT22;9799;48.214;16.388;2024-03-29T06:59:18;11.50;90.60
19330;DHT22;9799;48.214;16.388;2024-03-29T07:02:39;11.60;90.80
19330;DHT22;9799;48.214;16.388;2024-03-29T07:06:00;11.70;90.70
19330;DHT22;9799;48.214;16.388;2024-03-29T07:09:23;11.70;90.80
19330;DHT22;9799;48.214;16.388;2024-03-29T07:12:45;11.90;91.20
19330;DHT22;9799;48.214;16.388;2024-03-29T07:16:07;11.90;91.30
19330;DHT22;9799;48.214;16.388;2024-03-29T07:19:28;12.20;91.90
19330;DHT22;9799;48.214;16.388;2024-03-29T07:22:49;12.10;90.90
19330;DHT22;9799;48.214;16.388;2024-03-29T07:26:10;12.30;92.30
19330;DHT22;9799;48.214;16.388;2024-03-29T07:29:33;12.30;92.50
19330;DHT22;9799;48.214;16.388;2024-03-29T07:32:55;12.50;92.80
19330;DHT22;9799;48.214;16.388;2024-03-29T07:36:16;12.70;93.40
19330;DHT22;9799;48.214;16.388;2024-03-29T07:39:37;12.80;93.80
19330;DHT22;9799;48.214;16.388;2024-03-29T07:42:58;12.90;94.50
19330;DHT22;9799;48.214;16.388;2024-03-29T07:46:21;13.10;94.80
19330;DHT22;9799;48.214;16.388;2024-03-29T07:49:42;13.40;94.90
19330;DHT22;9799;48.214;16.388;2024-03-29T07:53:05;13.60;94.20
19330;DHT22;9799;48.214;16.388;2024-03-29T07:56:26;13.70;93.60
19330;DHT22;9799;48.214;16.388;2024-03-29T07:59:50;13.60;94.80
19330;DHT22;9799;48.214;16.388;2024-03-29T08:03:13;13.40;95.80
19330;DHT22;9799;48.214;16.388;2024-03-29T08:06:34;13.60;95.60
19330;DHT22;9799;48.214;16.388;2024-03-29T08:09:55;13.90;96.40
19330;DHT22;9799;48.214;16.388;2024-03-29T08:13:17;14.10;96.80
19330;DHT22;9799;48.214;16.388;2024-03-29T08:16:40;14.20;97.50
19330;DHT22;9799;48.214;16.388;2024-03-29T08:20:04;14.30;98.00
19330;DHT22;9799;48.214;16.388;2024-03-29T08:23:25;14.20;99.10
19330;DHT22;9799;48.214;16.388;2024-03-29T08:26:47;14.30;99.90
19330;DHT22;9799;48.214;16.388;2024-03-29T08:30:09;14.30;99.90
19330;DHT22;9799;48.214;16.388;2024-03-29T08:33:31;14.50;99.90
19330;DHT22;9799;48.214;16.388;2024-03-29T08:36:54;14.40;99.90
19330;DHT22;9799;48.214;16.388;2024-03-29T08:40:16;14.20;99.90
19330;DHT22;9799;48.214;16.388;2024-03-29T08:43:38;14.40;99.90
19330;DHT22;9799;48.214;16.388;2024-03-29T08:46:59;14.50;99.90
19330;DHT22;9799;48.214;16.388;2024-03-29T08:50:21;14.50;99.90
19330;DHT22;9799;48.214;16.388;2024-03-29T08:53:43;14.60;99.90
19330;DHT22;9799;48.214;16.388;2024-03-29T08:57:05;14.70;99.90
19330;DHT22;9799;48.214;16.388;2024-03-29T09:00:26;15.00;99.90
19330;DHT22;9799;48.214;16.388;2024-03-29T09:03:48;15.10;99.90
19330;DHT22;9799;48.214;16.388;2024-03-29T09:07:09;15.10;99.90
19330;DHT22;9799;48.214;16.388;2024-03-29T09:10:32;15.10;99.90
19330;DHT22;9799;48.214;16.388;2024-03-29T09:13:53;15.10;99.90
19330;DHT22;9799;48.214;16.388;2024-03-29T09:17:16;15.10;99.90
19330;DHT22;9799;48.214;16.388;2024-03-29T09:20:37;15.10;99.90
19330;DHT22;9799;48.214;16.388;2024-03-29T09:23:59;15.30;99.90
19330;DHT22;9799;48.214;16.388;2024-03-29T09:27:21;15.60;99.90
19330;DHT22;9799;48.214;16.388;2024-03-29T09:30:43;15.60;99.90
19330;DHT22;9799;48.214;16.388;2024-03-29T09:34:05;15.80;99.90
19330;DHT22;9799;48.214;16.388;2024-03-29T09:37:26;15.90;99.90
19330;DHT22;9799;48.214;16.388;2024-03-29T09:40:56;16.10;99.90
19330;DHT22;9799;48.214;16.388;2024-03-29T09:44:22;16.20;99.90
19330;DHT22;9799;48.214;16.388;2024-03-29T09:47:44;16.40;99.90
19330;DHT22;9799;48.214;16.388;2024-03-29T09:51:07;16.00;99.90
19330;DHT22;9799;48.214;16.388;2024-03-29T09:54:28;16.50;99.90
19330;DHT22;9799;48.214;16.388;2024-03-29T09:57:50;16.60;99.90
19330;DHT22;9799;48.214;16.388;2024-03-29T10:01:13;17.00;99.90
19330;DHT22;9799;48.214;16.388;2024-03-29T10:04:35;16.90;99.60
19330;DHT22;9799;48.214;16.388;2024-03-29T10:07:58;16.80;99.50
19330;DHT22;9799;48.214;16.388;2024-03-29T10:11:24;16.50;99.90
19330;DHT22;9799;48.214;16.388;2024-03-29T10:14:47;16.80;99.30
19330;DHT22;9799;48.214;16.388;2024-03-29T10:18:13;16.90;99.10
19330;DHT22;9799;48.214;16.388;2024-03-29T10:21:34;17.10;98.60
19330;DHT22;9799;48.214;16.388;2024-03-29T10:24:57;17.30;98.10
19330;DHT22;9799;48.214;16.388;2024-03-29T10:28:19;17.00;97.90
19330;DHT22;9799;48.214;16.388;2024-03-29T10:31:40;17.10;98.50
19330;DHT22;9799;48.214;16.388;2024-03-29T10:35:03;17.30;97.80
19330;DHT22;9799;48.214;16.388;2024-03-29T10:38:25;17.30;97.30
19330;DHT22;9799;48.214;16.388;2024-03-29T10:41:47;17.20;97.30
19330;DHT22;9799;48.214;16.388;2024-03-29T10:45:09;17.20;97.60
19330;DHT22;9799;48.214;16.388;2024-03-29T10:48:31;17.50;98.00
19330;DHT22;9799;48.214;16.388;2024-03-29T10:51:55;17.20;99.20
19330;DHT22;9799;48.214;16.388;2024-03-29T10:55:17;17.20;99.40
19330;DHT22;9799;48.214;16.388;2024-03-29T10:58:40;17.20;99.30
19330;DHT22;9799;48.214;16.388;2024-03-29T11:02:12;17.20;98.60
19330;DHT22;9799;48.214;16.388;2024-03-29T11:05:35;17.30;98.30
19330;DHT22;9799;48.214;16.388;2024-03-29T11:08:59;17.20;98.30
19330;DHT22;9799;48.214;16.388;2024-03-29T11:12:23;17.20;98.90
19330;DHT22;9799;48.214;16.388;2024-03-29T11:15:48;17.30;99.00
19330;DHT22;9799;48.214;16.388;2024-03-29T11:19:09;17.20;99.80
19330;DHT22;9799;48.214;16.388;2024-03-29T11:22:31;17.40;99.90
19330;DHT22;9799;48.214;16.388;2024-03-29T11:25:55;17.20;99.90
19330;DHT22;9799;48.214;16.388;2024-03-29T11:29:21;17.50;99.90
19330;DHT22;9799;48.214;16.388;2024-03-29T11:32:43;17.40;99.40
19330;DHT22;9799;48.214;16.388;2024-03-29T11:36:10;17.50;98.30
19330;DHT22;9799;48.214;16.388;2024-03-29T11:39:33;17.50;98.30
19330;DHT22;9799;48.214;16.388;2024-03-29T11:42:56;17.60;97.90
19330;DHT22;9799;48.214;16.388;2024-03-29T11:46:18;17.80;97.80
19330;DHT22;9799;48.214;16.388;2024-03-29T11:49:39;17.90;97.40
19330;DHT22;9799;48.214;16.388;2024-03-29T11:53:02;17.90;97.60
19330;DHT22;9799;48.214;16.388;2024-03-29T11:56:23;17.90;97.50
19330;DHT22;9799;48.214;16.388;2024-03-29T11:59:46;17.90;98.30
19330;DHT22;9799;48.214;16.388;2024-03-29T12:03:08;18.10;98.10
19330;DHT22;9799;48.214;16.388;2024-03-29T12:06:29;18.10;98.40
19330;DHT22;9799;48.214;16.388;2024-03-29T12:09:50;18.10;98.50
19330;DHT22;9799;48.214;16.388;2024-03-29T12:13:11;18.20;97.60
19330;DHT22;9799;48.214;16.388;2024-03-29T12:16:44;18.30;97.50
19330;DHT22;9799;48.214;16.388;2024-03-29T12:20:06;18.30;97.50
19330;DHT22;9799;48.214;16.388;2024-03-29T12:23:31;18.50;97.10
19330;DHT22;9799;48.214;16.388;2024-03-29T12:26:53;18.60;97.00
19330;DHT22;9799;48.214;16.388;2024-03-29T12:30:14;18.90;96.50
19330;DHT22;9799;48.214;16.388;2024-03-29T12:33:37;19.10;95.80
19330;DHT22;9799;48.214;16.388;2024-03-29T12:36:58;19.30;95.30
19330;DHT22;9799;48.214;16.388;2024-03-29T12:40:20;19.30;94.60
19330;DHT22;9799;48.214;16.388;2024-03-29T12:43:42;19.40;92.80
19330;DHT22;9799;48.214;16.388;2024-03-29T12:47:04;19.40;92.40
19330;DHT22;9799;48.214;16.388;2024-03-29T12:50:28;19.40;92.20
19330;DHT22;9799;48.214;16.388;2024-03-29T12:53:49;19.50;92.20
19330;DHT22;9799;48.214;16.388;2024-03-29T12:57:11;19.50;92.00
19330;DHT22;9799;48.214;16.388;2024-03-29T13:00:32;19.60;91.60
19330;DHT22;9799;48.214;16.388;2024-03-29T13:03:53;19.80;91.40
19330;DHT22;9799;48.214;16.388;2024-03-29T13:07:16;19.90;91.10
19330;DHT22;9799;48.214;16.388;2024-03-29T13:10:38;19.70;91.70
19330;DHT22;9799;48.214;16.388;2024-03-29T13:14:00;19.60;92.10
19330;DHT22;9799;48.214;16.388;2024-03-29T13:17:21;19.70;91.80
19330;DHT22;9799;48.214;16.388;2024-03-29T13:20:43;19.90;91.10
19330;DHT22;9799;48.214;16.388;2024-03-29T13:24:05;19.80;91.10
19330;DHT22;9799;48.214;16.388;2024-03-29T13:27:27;19.80;91.00
19330;DHT22;9799;48.214;16.388;2024-03-29T13:30:48;20.10;90.60
19330;DHT22;9799;48.214;16.388;2024-03-29T13:34:11;20.00;90.60
19330;DHT22;9799;48.214;16.388;2024-03-29T13:37:32;19.80;91.00
19330;DHT22;9799;48.214;16.388;2024-03-29T13:40:55;20.10;90.70
19330;DHT22;9799;48.214;16.388;2024-03-29T13:44:17;20.20;90.60
19330;DHT22;9799;48.214;16.388;2024-03-29T13:47:40;20.40;90.50
19330;DHT22;9799;48.214;16.388;2024-03-29T13:51:02;20.50;90.20
19330;DHT22;9799;48.214;16.388;2024-03-29T13:54:24;20.60;90.00
19330;DHT22;9799;48.214;16.388;2024-03-29T13:57:46;20.70;89.30
19330;DHT22;9799;48.214;16.388;2024-03-29T14:01:08;20.70;88.10
19330;DHT22;9799;48.214;16.388;2024-03-29T14:04:29;20.80;88.30
19330;DHT22;9799;48.214;16.388;2024-03-29T14:07:50;20.90;88.10
19330;DHT22;9799;48.214;16.388;2024-03-29T14:11:12;21.10;85.90
19330;DHT22;9799;48.214;16.388;2024-03-29T14:14:35;21.20;85.80
19330;DHT22;9799;48.214;16.388;2024-03-29T14:17:57;21.20;84.10
19330;DHT22;9799;48.214;16.388;2024-03-29T14:21:18;21.10;84.40
19330;DHT22;9799;48.214;16.388;2024-03-29T14:24:39;20.90;87.50
19330;DHT22;9799;48.214;16.388;2024-03-29T14:28:13;20.50;81.90
19330;DHT22;9799;48.214;16.388;2024-03-29T14:31:36;20.70;81.20
19330;DHT22;9799;48.214;16.388;2024-03-29T14:34:57;20.70;83.70
19330;DHT22;9799;48.214;16.388;2024-03-29T14:38:18;20.30;84.50
19330;DHT22;9799;48.214;16.388;2024-03-29T14:41:41;20.70;85.70
19330;DHT22;9799;48.214;16.388;2024-03-29T14:45:03;20.70;84.30
19330;DHT22;9799;48.214;16.388;2024-03-29T14:48:27;20.30;85.00
19330;DHT22;9799;48.214;16.388;2024-03-29T14:51:48;20.50;84.40
19330;DHT22;9799;48.214;16.388;2024-03-29T14:55:09;20.90;83.50
19330;DHT22;9799;48.214;16.388;2024-03-29T14:58:31;20.60;83.40
19330;DHT22;9799;48.214;16.388;2024-03-29T15:01:52;20.60;82.70
19330;DHT22;9799;48.214;16.388;2024-03-29T15:05:15;21.00;81.30
19330;DHT22;9799;48.214;16.388;2024-03-29T15:08:36;20.70;81.70
19330;DHT22;9799;48.214;16.388;2024-03-29T15:11:57;20.60;82.30
19330;DHT22;9799;48.214;16.388;2024-03-29T15:15:19;20.50;83.30
19330;DHT22;9799;48.214;16.388;2024-03-29T15:18:40;20.60;81.90
19330;DHT22;9799;48.214;16.388;2024-03-29T15:22:04;20.30;82.70
19330;DHT22;9799;48.214;16.388;2024-03-29T15:25:27;20.60;81.90
19330;DHT22;9799;48.214;16.388;2024-03-29T15:28:48;20.00;84.10
19330;DHT22;9799;48.214;16.388;2024-03-29T15:32:27;20.00;85.30
19330;DHT22;9799;48.214;16.388;2024-03-29T15:35:52;20.40;83.20
19330;DHT22;9799;48.214;16.388;2024-03-29T15:39:15;20.40;83.70
19330;DHT22;9799;48.214;16.388;2024-03-29T15:42:39;20.60;82.80
19330;DHT22;9799;48.214;16.388;2024-03-29T15:46:01;20.20;84.60
19330;DHT22;9799;48.214;16.388;2024-03-29T15:49:23;20.50;82.50
19330;DHT22;9799;48.214;16.388;2024-03-29T15:52:44;20.40;82.60
19330;DHT22;9799;48.214;16.388;2024-03-29T15:56:07;20.10;82.50
19330;DHT22;9799;48.214;16.388;2024-03-29T15:59:29;20.20;84.30
19330;DHT22;9799;48.214;16.388;2024-03-29T16:02:50;20.00;83.60
19330;DHT22;9799;48.214;16.388;2024-03-29T16:06:12;20.20;83.40
19330;DHT22;9799;48.214;16.388;2024-03-29T16:09:34;19.80;84.80
19330;DHT22;9799;48.214;16.388;2024-03-29T16:12:56;19.70;86.00
19330;DHT22;9799;48.214;16.388;2024-03-29T16:16:18;19.30;87.30
19330;DHT22;9799;48.214;16.388;2024-03-29T16:19:41;19.50;86.90
19330;DHT22;9799;48.214;16.388;2024-03-29T16:23:01;19.40;87.60
19330;DHT22;9799;48.214;16.388;2024-03-29T16:26:22;19.40;88.10
19330;DHT22;9799;48.214;16.388;2024-03-29T16:29:44;19.30;88.30
19330;DHT22;9799;48.214;16.388;2024-03-29T16:33:06;19.10;89.70
19330;DHT22;9799;48.214;16.388;2024-03-29T16:36:26;18.90;89.70
19330;DHT22;9799;48.214;16.388;2024-03-29T16:39:47;18.90;89.90
19330;DHT22;9799;48.214;16.388;2024-03-29T16:43:07;18.90;90.00
19330;DHT22;9799;48.214;16.388;2024-03-29T16:46:34;18.80;90.90
19330;DHT22;9799;48.214;16.388;2024-03-29T16:49:55;18.50;90.90
19330;DHT22;9799;48.214;16.388;2024-03-29T16:53:16;18.70;90.80
19330;DHT22;9799;48.214;16.388;2024-03-29T16:56:37;18.70;91.20
19330;DHT22;9799;48.214;16.388;2024-03-29T16:59:58;18.60;91.30
19330;DHT22;9799;48.214;16.388;2024-03-29T17:03:20;18.70;91.70
19330;DHT22;9799;48.214;16.388;2024-03-29T17:06:41;18.60;91.90
19330;DHT22;9799;48.214;16.388;2024-03-29T17:10:03;18.00;93.00
19330;DHT22;9799;48.214;16.388;2024-03-29T17:13:23;18.20;92.90
19330;DHT22;9799;48.214;16.388;2024-03-29T17:16:45;18.30;92.60
19330;DHT22;9799;48.214;16.388;2024-03-29T17:20:10;18.30;92.70
19330;DHT22;9799;48.214;16.388;2024-03-29T17:23:31;18.30;92.60
19330;DHT22;9799;48.214;16.388;2024-03-29T17:26:53;18.40;92.40
19330;DHT22;9799;48.214;16.388;2024-03-29T17:30:14;18.20;92.80
19330;DHT22;9799;48.214;16.388;2024-03-29T17:33:35;18.00;93.10
19330;DHT22;9799;48.214;16.388;2024-03-29T17:36:57;17.80;93.70
19330;DHT22;9799;48.214;16.388;2024-03-29T17:40:19;17.80;93.60
19330;DHT22;9799;48.214;16.388;2024-03-29T17:43:39;17.30;96.20
19330;DHT22;9799;48.214;16.388;2024-03-29T17:47:00;17.60;94.50
19330;DHT22;9799;48.214;16.388;2024-03-29T17:50:21;17.60;94.20
19330;DHT22;9799;48.214;16.388;2024-03-29T17:53:44;17.90;93.90
19330;DHT22;9799;48.214;16.388;2024-03-29T17:57:04;18.00;93.40
19330;DHT22;9799;48.214;16.388;2024-03-29T18:00:26;17.70;94.10
19330;DHT22;9799;48.214;16.388;2024-03-29T18:03:47;17.20;94.90
19330;DHT22;9799;48.214;16.388;2024-03-29T18:07:09;17.30;95.40
19330;DHT22;9799;48.214;16.388;2024-03-29T18:10:32;17.30;95.40
19330;DHT22;9799;48.214;16.388;2024-03-29T18:13:52;17.50;94.90
19330;DHT22;9799;48.214;16.388;2024-03-29T18:17:15;17.60;94.70
19330;DHT22;9799;48.214;16.388;2024-03-29T18:20:36;17.70;94.80
19330;DHT22;9799;48.214;16.388;2024-03-29T18:23:57;17.70;94.60
19330;DHT22;9799;48.214;16.388;2024-03-29T18:27:20;17.70;94.50
19330;DHT22;9799;48.214;16.388;2024-03-29T18:30:41;17.70;94.40
19330;DHT22;9799;48.214;16.388;2024-03-29T18:34:01;17.70;94.50
19330;DHT22;9799;48.214;16.388;2024-03-29T18:37:22;17.70;94.60
19330;DHT22;9799;48.214;16.388;2024-03-29T18:40:43;17.60;94.70
19330;DHT22;9799;48.214;16.388;2024-03-29T18:44:05;17.60;94.60
19330;DHT22;9799;48.214;16.388;2024-03-29T18:47:27;17.50;94.90
19330;DHT22;9799;48.214;16.388;2024-03-29T18:50:55;17.40;95.40
19330;DHT22;9799;48.214;16.388;2024-03-29T18:54:16;17.30;94.80
19330;DHT22;9799;48.214;16.388;2024-03-29T18:57:37;17.30;94.60
19330;DHT22;9799;48.214;16.388;2024-03-29T19:01:00;17.40;94.40
19330;DHT22;9799;48.214;16.388;2024-03-29T19:04:21;17.40;94.20
19330;DHT22;9799;48.214;16.388;2024-03-29T19:07:42;17.40;94.00
19330;DHT22;9799;48.214;16.388;2024-03-29T19:11:04;17.40;94.00
19330;DHT22;9799;48.214;16.388;2024-03-29T19:14:24;17.40;93.80
19330;DHT22;9799;48.214;16.388;2024-03-29T19:17:47;17.30;93.80
19330;DHT22;9799;48.214;16.388;2024-03-29T19:21:08;17.30;94.10
19330;DHT22;9799;48.214;16.388;2024-03-29T19:24:29;17.30;94.20
19330;DHT22;9799;48.214;16.388;2024-03-29T19:27:52;17.30;94.00
19330;DHT22;9799;48.214;16.388;2024-03-29T19:31:12;17.20;93.90
19330;DHT22;9799;48.214;16.388;2024-03-29T19:34:34;17.20;94.10
19330;DHT22;9799;48.214;16.388;2024-03-29T19:37:55;17.10;94.40
19330;DHT22;9799;48.214;16.388;2024-03-29T19:41:18;17.00;94.20
19330;DHT22;9799;48.214;16.388;2024-03-29T19:44:38;17.10;94.00
19330;DHT22;9799;48.214;16.388;2024-03-29T19:48:00;17.00;94.10
19330;DHT22;9799;48.214;16.388;2024-03-29T19:51:22;17.10;94.10
19330;DHT22;9799;48.214;16.388;2024-03-29T19:54:44;17.20;93.40
19330;DHT22;9799;48.214;16.388;2024-03-29T19:58:04;17.20;93.90
19330;DHT22;9799;48.214;16.388;2024-03-29T20:01:25;17.10;93.60
19330;DHT22;9799;48.214;16.388;2024-03-29T20:04:46;17.10;93.40
19330;DHT22;9799;48.214;16.388;2024-03-29T20:08:09;17.10;93.50
19330;DHT22;9799;48.214;16.388;2024-03-29T20:11:30;17.10;93.50
19330;DHT22;9799;48.214;16.388;2024-03-29T20:14:52;17.10;94.00
19330;DHT22;9799;48.214;16.388;2024-03-29T20:18:13;17.00;93.80
19330;DHT22;9799;48.214;16.388;2024-03-29T20:21:35;17.00;93.70
19330;DHT22;9799;48.214;16.388;2024-03-29T20:24:57;17.00;94.10
19330;DHT22;9799;48.214;16.388;2024-03-29T20:28:19;17.00;93.70
19330;DHT22;9799;48.214;16.388;2024-03-29T20:31:41;17.00;93.80
19330;DHT22;9799;48.214;16.388;2024-03-29T20:35:04;17.00;93.90
19330;DHT22;9799;48.214;16.388;2024-03-29T20:38:25;17.00;93.60
19330;DHT22;9799;48.214;16.388;2024-03-29T20:41:47;17.00;93.90
19330;DHT22;9799;48.214;16.388;2024-03-29T20:45:09;16.90;93.70
19330;DHT22;9799;48.214;16.388;2024-03-29T20:48:31;17.00;93.70
19330;DHT22;9799;48.214;16.388;2024-03-29T20:51:53;16.90;93.70
19330;DHT22;9799;48.214;16.388;2024-03-29T20:55:13;16.90;93.80
19330;DHT22;9799;48.214;16.388;2024-03-29T20:58:37;16.90;93.90
19330;DHT22;9799;48.214;16.388;2024-03-29T21:01:58;16.80;94.40
19330;DHT22;9799;48.214;16.388;2024-03-29T21:05:37;16.70;94.50
19330;DHT22;9799;48.214;16.388;2024-03-29T21:09:00;16.70;94.60
19330;DHT22;9799;48.214;16.388;2024-03-29T21:12:21;16.60;95.10
19330;DHT22;9799;48.214;16.388;2024-03-29T21:15:45;16.70;95.10
19330;DHT22;9799;48.214;16.388;2024-03-29T21:19:06;16.70;94.90